createdAt,value
2022-12-31T00:00:50.437Z,1017.18
2022-12-31T00:01:50.429Z,1017.38
2022-12-31T00:02:50.476Z,1017.47
2022-12-31T00:03:50.366Z,1017.55
2022-12-31T00:04:50.384Z,1017.59
2022-12-31T00:05:50.358Z,1017.63
2022-12-31T00:06:50.362Z,1017.15
2022-12-31T00:07:50.396Z,1016.43
2022-12-31T00:08:50.376Z,1016.43
2022-12-31T00:09:50.384Z,1016.42
2022-12-31T00:10:50.362Z,1016.39
2022-12-31T00:11:50.376Z,1016.08
2022-12-31T00:12:50.360Z,1016.02
2022-12-31T00:13:50.372Z,1015.97
2022-12-31T00:14:50.376Z,1015.92
2022-12-31T00:15:50.355Z,1015.85
2022-12-31T00:16:50.454Z,1015.86
2022-12-31T00:17:50.353Z,1015.81
2022-12-31T00:18:50.366Z,1015.77
2022-12-31T00:19:50.376Z,1015.73
2022-12-31T00:20:50.365Z,1015.66
2022-12-31T00:21:50.363Z,1015.61
2022-12-31T00:22:50.377Z,1015.64
2022-12-31T00:23:50.357Z,1015.63
2022-12-31T00:24:50.383Z,1015.61
2022-12-31T00:25:50.357Z,1015.67
2022-12-31T00:26:50.358Z,1015.64
2022-12-31T00:27:50.364Z,1015.68
2022-12-31T00:28:50.367Z,1015.74
2022-12-31T00:29:50.374Z,1015.78
2022-12-31T00:30:50.389Z,1015.78
2022-12-31T00:31:50.359Z,1015.87
2022-12-31T00:32:50.359Z,1015.94
2022-12-31T00:33:50.355Z,1016.03
2022-12-31T00:34:50.375Z,1016.07
2022-12-31T00:35:50.367Z,1016.17
2022-12-31T00:36:50.358Z,1016.21
2022-12-31T00:37:50.368Z,1016.23
2022-12-31T00:38:50.360Z,1016.29
2022-12-31T00:39:50.370Z,1016.31
2022-12-31T00:40:50.351Z,1016.36
2022-12-31T00:41:50.362Z,1016.38
2022-12-31T00:42:50.362Z,1016.35
2022-12-31T00:43:50.346Z,1016.42
2022-12-31T00:44:50.375Z,1016.44
2022-12-31T00:45:50.397Z,1016.53
2022-12-31T00:46:50.358Z,1016.63
2022-12-31T00:47:50.357Z,1016.89
2022-12-31T00:48:50.356Z,1017.1
2022-12-31T00:49:50.374Z,1017.1
2022-12-31T00:50:50.354Z,1017.29
2022-12-31T00:51:50.342Z,1017.55
2022-12-31T00:52:50.355Z,1017.8
2022-12-31T00:53:50.353Z,1018.07
2022-12-31T00:54:50.359Z,1018.28
2022-12-31T00:55:50.347Z,1015.94
2022-12-31T00:56:50.351Z,1015.98
2022-12-31T00:57:50.345Z,1016.27
2022-12-31T00:58:50.343Z,1016.09
2022-12-31T00:59:50.364Z,1015.93
2022-12-31T01:00:50.362Z,1016.04
2022-12-31T01:01:50.407Z,1016.15
2022-12-31T01:02:50.457Z,1016.13
2022-12-31T01:03:50.342Z,1016.04
2022-12-31T01:04:50.355Z,1016.25
2022-12-31T01:05:50.394Z,1016.09
2022-12-31T01:06:50.338Z,1016.09
2022-12-31T01:07:50.354Z,1015.95
2022-12-31T01:08:50.343Z,1016.02
2022-12-31T01:09:50.361Z,1016.02
2022-12-31T01:10:50.347Z,1016.02
2022-12-31T01:11:50.346Z,1015.96
2022-12-31T01:12:50.346Z,1016.06
2022-12-31T01:13:50.344Z,1015.98
2022-12-31T01:14:50.360Z,1016.2
2022-12-31T01:15:50.379Z,1016.16
2022-12-31T01:16:50.353Z,1016.16
2022-12-31T01:17:50.358Z,1016.1
2022-12-31T01:18:50.343Z,1015.97
2022-12-31T01:19:50.383Z,1016.05
2022-12-31T01:20:50.377Z,1016.17
2022-12-31T01:21:50.350Z,1016.1
2022-12-31T01:22:50.371Z,1016.08
2022-12-31T01:23:50.358Z,1016.09
2022-12-31T01:24:50.376Z,1016.03
2022-12-31T01:25:50.362Z,1016.05
2022-12-31T01:26:50.352Z,1016.24
2022-12-31T01:27:50.361Z,1016.24
2022-12-31T01:28:50.357Z,1016.38
2022-12-31T01:29:50.380Z,1016.09
2022-12-31T01:30:50.395Z,1016.09
2022-12-31T01:31:50.370Z,1016.2
2022-12-31T01:32:50.360Z,1016.47
2022-12-31T01:33:50.377Z,1016.32
2022-12-31T01:34:50.396Z,1016.24
2022-12-31T01:35:50.355Z,1016.33
2022-12-31T01:36:50.352Z,1016.4
2022-12-31T01:37:50.384Z,1016.28
2022-12-31T01:38:50.359Z,1016.43
2022-12-31T01:39:50.382Z,1016.48
2022-12-31T01:40:50.352Z,1016.32
2022-12-31T01:41:50.351Z,1016.62
2022-12-31T01:42:50.356Z,1016.55
2022-12-31T01:43:50.369Z,1016.45
2022-12-31T01:44:50.396Z,1016.62
2022-12-31T01:45:50.357Z,1016.62
2022-12-31T01:46:50.359Z,1016.54
2022-12-31T01:47:50.359Z,1016.55
2022-12-31T01:48:50.354Z,1016.39
2022-12-31T01:49:50.374Z,1016.45
2022-12-31T01:50:50.364Z,1016.4
2022-12-31T01:51:50.359Z,1016.29
2022-12-31T01:52:50.376Z,1016.3
2022-12-31T01:53:50.365Z,1016.33
2022-12-31T01:54:50.374Z,1016.35
2022-12-31T01:55:50.378Z,1016.27
2022-12-31T01:56:50.349Z,1016.22
2022-12-31T01:57:50.359Z,1016.5
2022-12-31T01:58:50.353Z,1016.5
2022-12-31T01:59:50.377Z,1016.48
2022-12-31T02:00:50.343Z,1016.57
2022-12-31T02:01:50.412Z,1016.86
2022-12-31T02:02:50.446Z,1016.27
2022-12-31T02:03:50.343Z,1016.57
2022-12-31T02:04:50.358Z,1016.4
2022-12-31T02:05:50.351Z,1016.43
2022-12-31T02:06:50.346Z,1016.64
2022-12-31T02:07:50.369Z,1016.64
2022-12-31T02:08:50.349Z,1016.83
2022-12-31T02:09:50.359Z,1016.83
2022-12-31T02:10:50.341Z,1016.75
2022-12-31T02:11:50.357Z,1016.73
2022-12-31T02:12:50.347Z,1016.73
2022-12-31T02:13:55.007Z,1016.7
2022-12-31T02:14:50.365Z,1016.68
2022-12-31T02:15:50.424Z,1016.66
2022-12-31T02:16:50.349Z,1016.68
2022-12-31T02:17:50.338Z,1016.65
2022-12-31T02:18:50.340Z,1016.61
2022-12-31T02:19:50.379Z,1016.67
2022-12-31T02:20:50.338Z,1016.67
2022-12-31T02:21:50.338Z,1016.46
2022-12-31T02:22:50.353Z,1016.53
2022-12-31T02:23:50.351Z,1016.49
2022-12-31T02:24:50.368Z,1016.5
2022-12-31T02:25:50.345Z,1016.41
2022-12-31T02:26:50.347Z,1016.5
2022-12-31T02:27:50.356Z,1016.54
2022-12-31T02:28:50.350Z,1016.6
2022-12-31T02:29:50.372Z,1016.36
2022-12-31T02:30:50.517Z,1016.36
2022-12-31T02:31:50.359Z,1016.43
2022-12-31T02:32:50.361Z,1016.59
2022-12-31T02:33:50.358Z,1016.4
2022-12-31T02:34:50.391Z,1016.49
2022-12-31T02:35:50.350Z,1016.64
2022-12-31T02:36:50.353Z,1016.64
2022-12-31T02:37:50.377Z,1016.68
2022-12-31T02:38:50.356Z,1016.68
2022-12-31T02:39:50.378Z,1016.59
2022-12-31T02:40:50.368Z,1016.61
2022-12-31T02:41:50.351Z,1016.72
2022-12-31T02:42:55.367Z,1016.69
2022-12-31T02:43:50.354Z,1016.71
2022-12-31T02:44:50.386Z,1016.74
2022-12-31T02:45:50.360Z,1016.71
2022-12-31T02:46:50.397Z,1016.77
2022-12-31T02:47:50.356Z,1016.73
2022-12-31T02:48:50.350Z,1016.84
2022-12-31T02:49:50.363Z,1016.61
2022-12-31T02:50:50.356Z,1016.76
2022-12-31T02:51:50.346Z,1016.78
2022-12-31T02:52:50.364Z,1016.8
2022-12-31T02:53:50.360Z,1016.76
2022-12-31T02:54:50.378Z,1016.71
2022-12-31T02:55:50.362Z,1016.75
2022-12-31T02:56:50.392Z,1016.68
2022-12-31T02:57:50.362Z,1016.65
2022-12-31T02:58:50.371Z,1016.7
2022-12-31T02:59:50.388Z,1016.73
2022-12-31T03:00:50.410Z,1016.73
2022-12-31T03:01:50.430Z,1016.77
2022-12-31T03:02:50.372Z,1016.86
2022-12-31T03:03:50.352Z,1016.77
2022-12-31T03:04:50.371Z,1016.77
2022-12-31T03:05:50.351Z,1016.69
2022-12-31T03:06:50.363Z,1016.87
2022-12-31T03:07:50.370Z,1016.91
2022-12-31T03:08:50.350Z,1016.91
2022-12-31T03:09:50.374Z,1016.91
2022-12-31T03:10:50.342Z,1016.87
2022-12-31T03:11:50.345Z,1016.89
2022-12-31T03:12:50.342Z,1016.91
2022-12-31T03:13:50.337Z,1016.92
2022-12-31T03:14:50.350Z,1016.93
2022-12-31T03:15:50.358Z,1016.9
2022-12-31T03:16:50.339Z,1016.84
2022-12-31T03:17:50.339Z,1016.86
2022-12-31T03:18:50.332Z,1016.88
2022-12-31T03:19:50.352Z,1016.84
2022-12-31T03:20:50.343Z,1016.8
2022-12-31T03:21:50.353Z,1016.83
2022-12-31T03:22:50.359Z,1016.89
2022-12-31T03:23:50.338Z,1016.72
2022-12-31T03:24:50.357Z,1016.86
2022-12-31T03:25:50.344Z,1016.69
2022-12-31T03:26:50.342Z,1016.64
2022-12-31T03:27:50.347Z,1016.86
2022-12-31T03:28:50.342Z,1016.68
2022-12-31T03:29:50.357Z,1016.5
2022-12-31T03:30:50.344Z,1016.5
2022-12-31T03:31:50.381Z,1016.42
2022-12-31T03:32:50.340Z,1016.4
2022-12-31T03:33:50.392Z,1016.38
2022-12-31T03:34:50.380Z,1016.4
2022-12-31T03:35:50.338Z,1016.43
2022-12-31T03:36:50.341Z,1016.62
2022-12-31T03:37:50.359Z,1016.62
2022-12-31T03:38:52.805Z,1016.47
2022-12-31T03:39:50.372Z,1016.49
2022-12-31T03:40:50.352Z,1016.57
2022-12-31T03:41:50.362Z,1016.69
2022-12-31T03:42:50.360Z,1016.68
2022-12-31T03:43:50.373Z,1016.55
2022-12-31T03:44:50.385Z,1016.74
2022-12-31T03:45:50.384Z,1016.73
2022-12-31T03:46:50.361Z,1016.74
2022-12-31T03:47:50.361Z,1016.78
2022-12-31T03:48:50.354Z,1016.72
2022-12-31T03:49:50.370Z,1016.63
2022-12-31T03:50:50.380Z,1016.64
2022-12-31T03:51:50.345Z,1016.73
2022-12-31T03:52:50.384Z,1016.65
2022-12-31T03:53:50.383Z,1016.67
2022-12-31T03:54:50.378Z,1016.63
2022-12-31T03:55:50.347Z,1017.03
2022-12-31T03:56:52.096Z,1016.74
2022-12-31T03:57:50.354Z,1016.7
2022-12-31T03:58:50.353Z,1016.68
2022-12-31T03:59:50.382Z,1016.72
2022-12-31T04:00:50.447Z,1016.72
2022-12-31T04:01:50.403Z,1016.68
2022-12-31T04:02:50.376Z,1016.74
2022-12-31T04:03:50.352Z,1016.65
2022-12-31T04:04:50.380Z,1016.65
2022-12-31T04:05:50.354Z,1016.59
2022-12-31T04:06:50.358Z,1016.69
2022-12-31T04:07:50.374Z,1016.61
2022-12-31T04:08:50.357Z,1016.61
2022-12-31T04:09:50.381Z,1016.7
2022-12-31T04:10:50.382Z,1016.64
2022-12-31T04:11:50.362Z,1016.71
2022-12-31T04:12:50.365Z,1016.59
2022-12-31T04:13:50.352Z,1016.51
2022-12-31T04:14:50.360Z,1016.51
2022-12-31T04:15:50.355Z,1016.56
2022-12-31T04:16:50.434Z,1016.41
2022-12-31T04:17:50.358Z,1016.29
2022-12-31T04:18:50.351Z,1016.39
2022-12-31T04:19:50.368Z,1016.35
2022-12-31T04:20:50.361Z,1016.38
2022-12-31T04:21:50.351Z,1016.59
2022-12-31T04:22:50.378Z,1016.76
2022-12-31T04:23:50.345Z,1016.76
2022-12-31T04:24:50.390Z,1016.54
2022-12-31T04:25:50.347Z,1016.54
2022-12-31T04:26:50.340Z,1016.45
2022-12-31T04:27:50.338Z,1016.47
2022-12-31T04:28:50.341Z,1016.51
2022-12-31T04:29:50.359Z,1016.54
2022-12-31T04:30:50.347Z,1016.31
2022-12-31T04:31:50.378Z,1016.41
2022-12-31T04:32:50.341Z,1016.55
2022-12-31T04:33:50.344Z,1016.5
2022-12-31T04:34:50.387Z,1016.52
2022-12-31T04:35:50.343Z,1016.56
2022-12-31T04:36:50.341Z,1016.52
2022-12-31T04:37:50.374Z,1016.5
2022-12-31T04:38:50.346Z,1016.42
2022-12-31T04:39:50.379Z,1016.65
2022-12-31T04:40:50.343Z,1016.74
2022-12-31T04:41:50.344Z,1016.59
2022-12-31T04:42:50.341Z,1016.88
2022-12-31T04:43:50.344Z,1016.63
2022-12-31T04:44:50.355Z,1016.59
2022-12-31T04:45:50.384Z,1016.8
2022-12-31T04:46:50.342Z,1016.63
2022-12-31T04:47:50.339Z,1016.6
2022-12-31T04:48:50.351Z,1016.52
2022-12-31T04:49:50.365Z,1016.47
2022-12-31T04:50:50.338Z,1016.51
2022-12-31T04:51:50.342Z,1016.64
2022-12-31T04:52:50.373Z,1016.63
2022-12-31T04:53:50.351Z,1016.66
2022-12-31T04:54:50.463Z,1016.67
2022-12-31T04:55:50.362Z,1016.63
2022-12-31T04:56:50.356Z,1016.66
2022-12-31T04:57:50.353Z,1016.69
2022-12-31T04:58:50.357Z,1016.72
2022-12-31T04:59:50.372Z,1016.69
2022-12-31T05:00:50.399Z,1016.69
2022-12-31T05:01:50.512Z,1016.66
2022-12-31T05:02:50.610Z,1016.71
2022-12-31T05:03:50.368Z,1016.87
2022-12-31T05:04:50.370Z,1016.73
2022-12-31T05:05:50.453Z,1016.76
2022-12-31T05:06:50.364Z,1016.89
2022-12-31T05:07:50.365Z,1016.84
2022-12-31T05:08:50.348Z,1016.84
2022-12-31T05:09:50.372Z,1016.8
2022-12-31T05:10:50.357Z,1016.8
2022-12-31T05:11:50.368Z,1016.78
2022-12-31T05:12:50.361Z,1016.55
2022-12-31T05:13:50.383Z,1016.66
2022-12-31T05:14:50.393Z,1016.55
2022-12-31T05:15:50.362Z,1016.61
2022-12-31T05:16:50.421Z,1016.6
2022-12-31T05:17:50.364Z,1016.59
2022-12-31T05:18:50.355Z,1016.59
2022-12-31T05:19:50.390Z,1016.68
2022-12-31T05:20:50.370Z,1016.68
2022-12-31T05:21:50.346Z,1016.74
2022-12-31T05:22:50.370Z,1016.63
2022-12-31T05:23:50.353Z,1016.49
2022-12-31T05:24:50.371Z,1016.59
2022-12-31T05:25:50.360Z,1016.57
2022-12-31T05:26:50.352Z,1016.6
2022-12-31T05:27:50.344Z,1016.29
2022-12-31T05:28:50.354Z,1016.38
2022-12-31T05:29:50.360Z,1016.3
2022-12-31T05:30:50.490Z,1016.3
2022-12-31T05:31:50.361Z,1016.44
2022-12-31T05:32:50.364Z,1016.32
2022-12-31T05:33:50.355Z,1016.45
2022-12-31T05:34:50.386Z,1016.45
2022-12-31T05:35:50.359Z,1016.5
2022-12-31T05:36:50.374Z,1016.51
2022-12-31T05:37:50.375Z,1016.64
2022-12-31T05:38:50.365Z,1016.64
2022-12-31T05:39:50.358Z,1016.79
2022-12-31T05:40:50.342Z,1016.6
2022-12-31T05:41:50.345Z,1016.53
2022-12-31T05:42:50.337Z,1016.46
2022-12-31T05:43:50.343Z,1016.51
2022-12-31T05:44:50.356Z,1016.57
2022-12-31T05:45:50.394Z,1016.39
2022-12-31T05:46:50.342Z,1016.27
2022-12-31T05:47:50.336Z,1016.45
2022-12-31T05:48:50.352Z,1016.5
2022-12-31T05:49:50.351Z,1016.57
2022-12-31T05:50:50.338Z,1016.54
2022-12-31T05:51:50.348Z,1016.53
2022-12-31T05:52:50.364Z,1016.64
2022-12-31T05:53:50.345Z,1016.62
2022-12-31T05:54:50.363Z,1016.49
2022-12-31T05:55:50.338Z,1016.46
2022-12-31T05:56:50.338Z,1016.47
2022-12-31T05:57:50.342Z,1016.71
2022-12-31T05:58:50.348Z,1016.44
2022-12-31T05:59:50.355Z,1016.59
2022-12-31T06:00:50.341Z,1016.61
2022-12-31T06:01:50.340Z,1016.53
2022-12-31T06:02:50.370Z,1016.73
2022-12-31T06:03:50.425Z,1016.79
2022-12-31T06:04:50.355Z,1016.7
2022-12-31T06:05:50.342Z,1016.83
2022-12-31T06:06:50.370Z,1016.78
2022-12-31T06:07:50.371Z,1016.76
2022-12-31T06:08:50.359Z,1016.76
2022-12-31T06:09:50.380Z,1016.72
2022-12-31T06:10:50.350Z,1016.72
2022-12-31T06:11:50.370Z,1016.92
2022-12-31T06:12:50.345Z,1016.82
2022-12-31T06:13:50.351Z,1016.71
2022-12-31T06:14:50.397Z,1016.78
2022-12-31T06:15:50.360Z,1016.74
2022-12-31T06:16:50.344Z,1016.88
2022-12-31T06:17:50.356Z,1016.7
2022-12-31T06:18:50.353Z,1016.88
2022-12-31T06:19:50.379Z,1016.69
2022-12-31T06:20:50.355Z,1016.69
2022-12-31T06:21:50.373Z,1016.82
2022-12-31T06:22:50.375Z,1016.74
2022-12-31T06:23:50.360Z,1016.56
2022-12-31T06:24:50.374Z,1016.72
2022-12-31T06:25:50.362Z,1016.85
2022-12-31T06:26:50.353Z,1016.82
2022-12-31T06:27:50.356Z,1016.88
2022-12-31T06:28:50.359Z,1017
2022-12-31T06:29:50.377Z,1016.95
2022-12-31T06:30:50.432Z,1016.97
2022-12-31T06:31:50.356Z,1016.82
2022-12-31T06:32:50.346Z,1016.84
2022-12-31T06:33:50.349Z,1016.94
2022-12-31T06:34:50.368Z,1016.76
2022-12-31T06:35:50.348Z,1017.01
2022-12-31T06:36:50.356Z,1017.08
2022-12-31T06:37:50.370Z,1017.25
2022-12-31T06:38:50.360Z,1017.32
2022-12-31T06:39:50.377Z,1017.53
2022-12-31T06:40:50.371Z,1017.36
2022-12-31T06:41:50.342Z,1017.35
2022-12-31T06:42:54.615Z,1017.37
2022-12-31T06:43:50.356Z,1017.55
2022-12-31T06:44:50.416Z,1017.26
2022-12-31T06:45:50.351Z,1017.27
2022-12-31T06:46:50.427Z,1017.22
2022-12-31T06:47:50.347Z,1017.17
2022-12-31T06:48:50.352Z,1017.37
2022-12-31T06:49:50.373Z,1017.4
2022-12-31T06:50:50.344Z,1017.34
2022-12-31T06:51:50.359Z,1017.47
2022-12-31T06:52:50.370Z,1017.34
2022-12-31T06:53:50.351Z,1017.34
2022-12-31T06:54:50.375Z,1017.69
2022-12-31T06:55:50.343Z,1017.44
2022-12-31T06:56:50.355Z,1017.29
2022-12-31T06:57:50.361Z,1017.29
2022-12-31T06:58:50.340Z,1017.29
2022-12-31T06:59:50.358Z,1017.35
2022-12-31T07:00:50.348Z,1017.15
2022-12-31T07:01:50.496Z,1017.27
2022-12-31T07:02:50.458Z,1017.03
2022-12-31T07:03:50.342Z,1017.3
2022-12-31T07:04:50.355Z,1016.95
2022-12-31T07:05:50.342Z,1017.35
2022-12-31T07:06:50.336Z,1017.22
2022-12-31T07:07:50.355Z,1017.11
2022-12-31T07:08:50.348Z,1017.35
2022-12-31T07:09:50.360Z,1017.35
2022-12-31T07:10:50.339Z,1017.49
2022-12-31T07:11:50.390Z,1017.27
2022-12-31T07:12:50.343Z,1017.05
2022-12-31T07:13:50.346Z,1017.03
2022-12-31T07:14:50.437Z,1016.93
2022-12-31T07:15:50.397Z,1017.12
2022-12-31T07:16:50.345Z,1017.05
2022-12-31T07:17:50.338Z,1016.97
2022-12-31T07:18:50.363Z,1017.27
2022-12-31T07:19:57.128Z,1017.01
2022-12-31T07:20:50.343Z,1016.99
2022-12-31T07:21:50.356Z,1016.99
2022-12-31T07:22:50.378Z,1016.98
2022-12-31T07:23:50.357Z,1017.25
2022-12-31T07:24:50.380Z,1017.26
2022-12-31T07:25:50.356Z,1017.18
2022-12-31T07:26:56.174Z,1017.39
2022-12-31T07:27:50.365Z,1017.24
2022-12-31T07:28:50.358Z,1017.22
2022-12-31T07:29:50.384Z,1017.17
2022-12-31T07:30:50.363Z,1017.1
2022-12-31T07:31:50.362Z,1017.11
2022-12-31T07:32:50.360Z,1017.1
2022-12-31T07:33:50.362Z,1017.29
2022-12-31T07:34:50.362Z,1017.18
2022-12-31T07:35:50.355Z,1017.26
2022-12-31T07:36:50.365Z,1017.19
2022-12-31T07:37:50.376Z,1017.19
2022-12-31T07:38:50.365Z,1017.25
2022-12-31T07:39:50.371Z,1017.55
2022-12-31T07:40:50.355Z,1017.22
2022-12-31T07:41:50.359Z,1017.33
2022-12-31T07:42:50.362Z,1017.19
2022-12-31T07:43:50.373Z,1017.33
2022-12-31T07:44:50.373Z,1017.37
2022-12-31T07:45:50.365Z,1017.39
2022-12-31T07:46:50.428Z,1017.45
2022-12-31T07:47:50.359Z,1017.36
2022-12-31T07:48:50.366Z,1017.53
2022-12-31T07:49:50.368Z,1017.57
2022-12-31T07:50:50.353Z,1017.63
2022-12-31T07:51:50.359Z,1017.58
2022-12-31T07:52:50.369Z,1017.42
2022-12-31T07:53:50.371Z,1017.59
2022-12-31T07:54:50.373Z,1017.69
2022-12-31T07:55:50.352Z,1017.63
2022-12-31T07:56:50.350Z,1017.46
2022-12-31T07:57:50.391Z,1017.64
2022-12-31T07:58:50.348Z,1017.47
2022-12-31T07:59:50.367Z,1017.39
2022-12-31T08:00:50.382Z,1017.48
2022-12-31T08:01:50.444Z,1017.46
2022-12-31T08:02:50.393Z,1017.55
2022-12-31T08:03:50.359Z,1017.26
2022-12-31T08:04:50.370Z,1017.31
2022-12-31T08:05:50.345Z,1017.47
2022-12-31T08:06:50.351Z,1017.47
2022-12-31T08:07:50.360Z,1017.29
2022-12-31T08:08:50.343Z,1017.86
2022-12-31T08:09:50.355Z,1017.86
2022-12-31T08:10:50.343Z,1017.58
2022-12-31T08:11:50.336Z,1017.24
2022-12-31T08:12:50.350Z,1017.42
2022-12-31T08:13:50.348Z,1017.32
2022-12-31T08:14:50.350Z,1017.42
2022-12-31T08:15:50.419Z,1017.37
2022-12-31T08:16:50.476Z,1017.69
2022-12-31T08:17:50.349Z,1017.41
2022-12-31T08:18:50.347Z,1017.57
2022-12-31T08:19:50.372Z,1017.36
2022-12-31T08:20:50.339Z,1017.47
2022-12-31T08:21:50.335Z,1017.46
2022-12-31T08:22:50.359Z,1017.63
2022-12-31T08:23:50.343Z,1017.63
2022-12-31T08:24:50.355Z,1017.41
2022-12-31T08:25:50.337Z,1017.67
2022-12-31T08:26:53.167Z,1017.57
2022-12-31T08:27:50.347Z,1017.62
2022-12-31T08:28:50.342Z,1017.89
2022-12-31T08:29:50.359Z,1017.82
2022-12-31T08:30:50.351Z,1017.87
2022-12-31T08:31:50.386Z,1017.83
2022-12-31T08:32:50.361Z,1018.06
2022-12-31T08:33:50.358Z,1017.67
2022-12-31T08:34:50.557Z,1017.65
2022-12-31T08:35:50.353Z,1017.68
2022-12-31T08:36:50.353Z,1017.76
2022-12-31T08:37:50.370Z,1017.6
2022-12-31T08:38:50.357Z,1017.81
2022-12-31T08:39:50.373Z,1017.65
2022-12-31T08:40:50.360Z,1017.75
2022-12-31T08:41:50.358Z,1017.78
2022-12-31T08:42:50.358Z,1017.72
2022-12-31T08:43:50.354Z,1017.91
2022-12-31T08:44:50.368Z,1017.72
2022-12-31T08:45:50.379Z,1018.1
2022-12-31T08:46:50.355Z,1017.83
2022-12-31T08:47:52.742Z,1017.68
2022-12-31T08:48:50.367Z,1017.79
2022-12-31T08:49:50.377Z,1017.91
2022-12-31T08:50:50.384Z,1017.99
2022-12-31T08:51:50.352Z,1017.82
2022-12-31T08:52:50.379Z,1017.89
2022-12-31T08:53:50.440Z,1017.95
2022-12-31T08:54:50.380Z,1017.63
2022-12-31T08:55:50.354Z,1018.1
2022-12-31T08:56:50.780Z,1017.88
2022-12-31T08:57:50.353Z,1017.87
2022-12-31T08:58:50.337Z,1017.84
2022-12-31T08:59:50.355Z,1017.71
2022-12-31T09:00:50.409Z,1017.71
2022-12-31T09:01:50.438Z,1017.95
2022-12-31T09:02:50.691Z,1017.83
2022-12-31T09:03:50.378Z,1017.59
2022-12-31T09:04:50.368Z,1017.95
2022-12-31T09:05:50.354Z,1017.76
2022-12-31T09:06:50.373Z,1017.86
2022-12-31T09:07:52.737Z,1017.86
2022-12-31T09:08:50.357Z,1017.86
2022-12-31T09:09:50.385Z,1017.67
2022-12-31T09:10:50.346Z,1017.67
2022-12-31T09:11:50.350Z,1017.72
2022-12-31T09:12:50.338Z,1017.72
2022-12-31T09:13:50.341Z,1017.69
2022-12-31T09:14:50.357Z,1017.56
2022-12-31T09:15:50.337Z,1017.59
2022-12-31T09:16:50.355Z,1017.65
2022-12-31T09:17:50.338Z,1017.64
2022-12-31T09:18:50.344Z,1017.85
2022-12-31T09:19:50.359Z,1017.67
2022-12-31T09:20:50.342Z,1017.73
2022-12-31T09:21:50.337Z,1017.89
2022-12-31T09:22:50.340Z,1017.84
2022-12-31T09:23:50.351Z,1017.68
2022-12-31T09:24:50.352Z,1017.67
2022-12-31T09:25:50.336Z,1017.77
2022-12-31T09:26:50.336Z,1017.66
2022-12-31T09:27:50.340Z,1017.68
2022-12-31T09:28:50.340Z,1017.83
2022-12-31T09:29:50.354Z,1017.64
2022-12-31T09:30:50.338Z,1017.47
2022-12-31T09:31:50.434Z,1017.57
2022-12-31T09:32:54.067Z,1017.68
2022-12-31T09:33:50.342Z,1017.47
2022-12-31T09:34:50.372Z,1017.58
2022-12-31T09:35:50.359Z,1017.26
2022-12-31T09:36:50.355Z,1017.7
2022-12-31T09:37:50.367Z,1017.35
2022-12-31T09:38:50.367Z,1017.34
2022-12-31T09:39:50.371Z,1017.47
2022-12-31T09:40:50.340Z,1017.5
2022-12-31T09:41:50.363Z,1017.41
2022-12-31T09:42:50.360Z,1017.44
2022-12-31T09:43:52.480Z,1017.45
2022-12-31T09:44:50.375Z,1017.33
2022-12-31T09:45:50.437Z,1017.3
2022-12-31T09:46:50.362Z,1017.23
2022-12-31T09:47:50.367Z,1017.42
2022-12-31T09:48:50.365Z,1017.26
2022-12-31T09:49:50.376Z,1017.37
2022-12-31T09:50:50.356Z,1017.01
2022-12-31T09:51:50.351Z,1017.11
2022-12-31T09:52:50.461Z,1017.13
2022-12-31T09:53:50.376Z,1017.27
2022-12-31T09:54:50.385Z,1016.99
2022-12-31T09:55:50.355Z,1017.1
2022-12-31T09:56:55.515Z,1017.32
2022-12-31T09:57:50.367Z,1017.42
2022-12-31T09:58:50.367Z,1017.24
2022-12-31T09:59:50.445Z,1017.17
2022-12-31T10:00:50.520Z,1017.41
2022-12-31T10:01:50.441Z,1017.19
2022-12-31T10:02:50.431Z,1017.53
2022-12-31T10:03:50.361Z,1017.3
2022-12-31T10:04:50.371Z,1017.52
2022-12-31T10:05:50.365Z,1017.63
2022-12-31T10:06:50.363Z,1017.69
2022-12-31T10:07:53.437Z,1017.63
2022-12-31T10:08:50.378Z,1017.63
2022-12-31T10:09:50.361Z,1017.63
2022-12-31T10:10:50.347Z,1017.73
2022-12-31T10:11:50.355Z,1017.68
2022-12-31T10:12:50.361Z,1017.76
2022-12-31T10:13:50.371Z,1017.66
2022-12-31T10:14:50.380Z,1018.02
2022-12-31T10:15:50.359Z,1017.9
2022-12-31T10:16:50.377Z,1017.6
2022-12-31T10:17:50.361Z,1017.68
2022-12-31T10:18:50.352Z,1017.62
2022-12-31T10:19:50.393Z,1017.71
2022-12-31T10:20:50.355Z,1017.72
2022-12-31T10:21:50.365Z,1017.72
2022-12-31T10:22:50.348Z,1017.75
2022-12-31T10:23:50.374Z,1017.75
2022-12-31T10:24:50.367Z,1017.77
2022-12-31T10:25:50.342Z,1017.63
2022-12-31T10:26:53.410Z,1017.47
2022-12-31T10:27:50.338Z,1017.69
2022-12-31T10:28:50.341Z,1017.63
2022-12-31T10:29:50.353Z,1017.77
2022-12-31T10:30:50.404Z,1018.09
2022-12-31T10:31:50.345Z,1017.61
2022-12-31T10:32:50.344Z,1017.61
2022-12-31T10:33:50.336Z,1017.71
2022-12-31T10:34:50.369Z,1017.61
2022-12-31T10:35:50.355Z,1017.52
2022-12-31T10:36:50.346Z,1017.53
2022-12-31T10:37:50.342Z,1017.72
2022-12-31T10:38:50.363Z,1017.4
2022-12-31T10:39:50.372Z,1017.86
2022-12-31T10:40:50.342Z,1017.86
2022-12-31T10:41:50.345Z,1017.54
2022-12-31T10:42:50.344Z,1017.46
2022-12-31T10:43:50.351Z,1017.61
2022-12-31T10:44:50.365Z,1017.53
2022-12-31T10:45:50.394Z,1017.4
2022-12-31T10:46:50.383Z,1017.43
2022-12-31T10:47:50.367Z,1017.41
2022-12-31T10:48:50.355Z,1017.43
2022-12-31T10:49:50.371Z,1017.14
2022-12-31T10:50:50.359Z,1017.44
2022-12-31T10:51:50.354Z,1017.38
2022-12-31T10:52:50.392Z,1017.37
2022-12-31T10:53:50.472Z,1017.44
2022-12-31T10:54:50.376Z,1017.25
2022-12-31T10:55:50.361Z,1017.56
2022-12-31T10:56:50.355Z,1017.55
2022-12-31T10:57:50.346Z,1017.53
2022-12-31T10:58:50.371Z,1017.65
2022-12-31T10:59:50.496Z,1017.69
2022-12-31T11:00:50.361Z,1017.61
2022-12-31T11:01:50.447Z,1017.43
2022-12-31T11:02:50.437Z,1017.42
2022-12-31T11:03:50.360Z,1017.59
2022-12-31T11:04:50.377Z,1017.63
2022-12-31T11:05:50.419Z,1017.58
2022-12-31T11:06:50.356Z,1017.48
2022-12-31T11:07:50.357Z,1017.52
2022-12-31T11:08:50.464Z,1017.52
2022-12-31T11:09:50.382Z,1017.41
2022-12-31T11:10:50.353Z,1017.56
2022-12-31T11:11:50.361Z,1017.53
2022-12-31T11:12:50.351Z,1017.43
2022-12-31T11:13:50.356Z,1017.57
2022-12-31T11:14:50.387Z,1017.57
2022-12-31T11:15:50.584Z,1017.58
2022-12-31T11:16:50.362Z,1017.48
2022-12-31T11:17:50.368Z,1017.54
2022-12-31T11:18:50.361Z,1017.42
2022-12-31T11:19:50.375Z,1017.47
2022-12-31T11:20:50.378Z,1017.49
2022-12-31T11:21:50.367Z,1017.72
2022-12-31T11:22:50.355Z,1017.54
2022-12-31T11:23:50.383Z,1017.57
2022-12-31T11:24:50.378Z,1017.47
2022-12-31T11:25:50.348Z,1017.46
2022-12-31T11:26:50.350Z,1017.62
2022-12-31T11:27:50.349Z,1017.56
2022-12-31T11:28:50.344Z,1017.56
2022-12-31T11:29:50.358Z,1017.57
2022-12-31T11:30:50.381Z,1017.68
2022-12-31T11:31:50.338Z,1017.8
2022-12-31T11:32:50.343Z,1017.69
2022-12-31T11:33:50.668Z,1017.88
2022-12-31T11:34:50.364Z,1017.73
2022-12-31T11:35:50.341Z,1017.77
2022-12-31T11:36:50.340Z,1017.8
2022-12-31T11:37:50.776Z,1017.81
2022-12-31T11:38:50.366Z,1017.78
2022-12-31T11:39:50.366Z,1017.71
2022-12-31T11:40:50.359Z,1017.66
2022-12-31T11:41:50.338Z,1017.68
2022-12-31T11:42:50.340Z,1017.71
2022-12-31T11:43:50.347Z,1017.85
2022-12-31T11:44:50.864Z,1017.72
2022-12-31T11:45:50.880Z,1017.72
2022-12-31T11:46:50.533Z,1017.67
2022-12-31T11:48:28.551Z,1017.59
2022-12-31T11:48:50.340Z,1017.59
2022-12-31T11:49:50.366Z,1017.49
2022-12-31T11:50:50.547Z,1017.58
2022-12-31T11:51:50.887Z,1017.65
2022-12-31T11:52:50.391Z,1017.65
2022-12-31T11:53:50.372Z,1017.56
2022-12-31T11:54:50.378Z,1017.55
2022-12-31T11:55:50.355Z,1017.62
2022-12-31T11:56:50.360Z,1017.56
2022-12-31T11:57:50.366Z,1017.63
2022-12-31T11:58:50.388Z,1017.65
2022-12-31T11:59:50.375Z,1017.78
2022-12-31T12:00:50.356Z,1017.65
2022-12-31T12:01:50.348Z,1017.77
2022-12-31T12:02:50.394Z,1017.67
2022-12-31T12:03:50.469Z,1017.62
2022-12-31T12:04:50.385Z,1017.7
2022-12-31T12:05:50.359Z,1017.64
2022-12-31T12:06:50.370Z,1017.61
2022-12-31T12:07:50.359Z,1017.62